Time;durP1;ratioP1;P1;durP2;ratioP2;P2;SDS_P1;SDS_P2;PMS_P1;PMS_P2;Temp;Humidity;BMP_temperature;BMP_pressure;BME280_temperature;BME280_humidity;BME280_pressure;Samples;Min_cycle;Max_cycle;Signal;HPM_P1;HPM_P2
2023/10/10 00:01:41;;;;;;;2.80;0.80;;;;;;;3.18;100.00;100268.58;104652;1258;60596;-48
2023/10/10 00:04:10;;;;;;;4.20;0.80;;;;;;;3.15;100.00;100267.02;104626;1258;59760;-47
2023/10/10 00:06:39;;;;;;;2.50;1.00;;;;;;;3.13;100.00;100267.41;104598;1253;72641;-49
2023/10/10 00:09:09;;;;;;;2.10;0.70;;;;;;;3.10;100.00;100263.34;104865;1253;67961;-49
2023/10/10 00:11:45;;;;;;;2.70;0.80;;;;;;;3.08;100.00;100259.99;105352;1254;73668;-48
2023/10/10 00:14:19;;;;;;;1.60;0.70;;;;;;;3.08;100.00;100259.48;104734;1254;62746;-51
2023/10/10 00:16:48;;;;;;;2.20;0.60;;;;;;;3.09;100.00;100258.75;108935;1253;58833;-49
2023/10/10 00:19:28;;;;;;;0.90;0.60;;;;;;;3.09;100.00;100262.83;109010;1253;72640;-46
2023/10/10 00:21:56;;;;;;;1.10;0.50;;;;;;;3.09;100.00;100260.70;107328;1258;67902;-47
2023/10/10 00:24:30;;;;;;;1.80;0.70;;;;;;;3.11;100.00;100266.36;104554;1258;71757;-49
2023/10/10 00:26:59;;;;;;;3.20;0.80;;;;;;;3.11;100.00;100270.08;104690;1253;60447;-48
2023/10/10 00:29:26;;;;;;;1.70;0.70;;;;;;;3.11;100.00;100269.38;104886;1253;60559;-49
2023/10/10 00:31:57;;;;;;;1.90;0.70;;;;;;;3.12;100.00;100268.31;104940;1254;72687;-49
2023/10/10 00:34:24;;;;;;;2.30;0.80;;;;;;;3.11;100.00;100270.62;104601;1258;68208;-50
2023/10/10 00:36:52;;;;;;;3.30;0.80;;;;;;;3.10;100.00;100265.66;104545;1256;73042;-48
2023/10/10 00:44:18;;;;;;;1.80;0.60;;;;;;;3.03;100.00;100266.09;104768;1257;74376;-50
2023/10/10 00:46:49;;;;;;;1.40;0.70;;;;;;;3.01;100.00;100266.63;108937;1253;66526;-49
2023/10/10 00:49:17;;;;;;;2.20;0.60;;;;;;;2.98;100.00;100264.16;108915;1253;72908;-49
2023/10/10 00:51:47;;;;;;;1.90;0.70;;;;;;;2.98;100.00;100261.88;108982;1255;59691;-49
2023/10/10 00:56:56;;;;;;;1.70;0.70;;;;;;;2.99;100.00;100256.71;108928;1253;72735;-49
2023/10/10 00:59:42;;;;;;;2.10;0.80;;;;;;;3.00;100.00;100259.00;108975;1253;65826;-49
2023/10/10 01:02:16;;;;;;;1.80;0.70;;;;;;;3.05;100.00;100258.27;109007;1254;72745;-49
2023/10/10 01:07:22;;;;;;;2.50;0.70;;;;;;;3.12;100.00;100262.63;108845;1253;58297;-51
2023/10/10 01:09:56;;;;;;;3.10;0.70;;;;;;;3.15;100.00;100264.90;109038;1256;72568;-51
2023/10/10 01:12:35;;;;;;;3.20;1.10;;;;;;;3.18;100.00;100263.09;109039;1253;67391;-51
2023/10/10 01:15:08;;;;;;;1.60;0.60;;;;;;;3.20;100.00;100259.36;108825;1253;71454;-49
2023/10/10 01:17:37;;;;;;;1.80;0.70;;;;;;;3.20;100.00;100263.96;109093;1253;59292;-51
2023/10/10 01:20:25;;;;;;;3.30;1.00;;;;;;;3.19;100.00;100268.58;108967;1253;60623;-50
2023/10/10 01:22:56;;;;;;;3.90;0.70;;;;;;;3.18;100.00;100270.54;106487;1254;72657;-50
2023/10/10 01:25:41;;;;;;;2.20;0.70;;;;;;;3.17;100.00;100270.54;104591;1256;67508;-50
2023/10/10 01:33:42;;;;;;;2.70;0.80;;;;;;;3.11;100.00;100272.73;104776;1256;60518;-50
2023/10/10 01:36:12;;;;;;;2.50;0.70;;;;;;;3.08;100.00;100277.73;104544;1259;73931;-52
2023/10/10 01:38:56;;;;;;;1.30;0.70;;;;;;;3.05;100.00;100277.78;108756;1254;67018;-50
2023/10/10 01:41:48;;;;;;;2.80;0.70;;;;;;;3.04;100.00;100279.73;104711;1256;72451;-52
2023/10/10 01:44:18;;;;;;;1.70;0.80;;;;;;;3.06;100.00;100280.95;104661;1254;62047;-50
2023/10/10 01:46:46;;;;;;;1.40;0.80;;;;;;;3.08;100.00;100280.92;104585;1256;60677;-50
2023/10/10 01:49:19;;;;;;;3.10;0.70;;;;;;;3.09;100.00;100285.70;105286;1258;73761;-51
2023/10/10 01:51:55;;;;;;;2.00;0.60;;;;;;;3.12;100.00;100283.90;105085;1259;66002;-51
2023/10/10 01:54:29;;;;;;;2.10;0.70;;;;;;;3.15;100.00;100283.73;105320;1258;71715;-50
2023/10/10 01:56:56;;;;;;;1.50;0.80;;;;;;;3.17;100.00;100281.73;106600;1256;60584;-51
2023/10/10 01:59:25;;;;;;;2.10;0.80;;;;;;;3.17;100.00;100275.52;104771;1255;60741;-51
2023/10/10 02:01:54;;;;;;;1.70;0.80;;;;;;;3.18;100.00;100276.58;105372;1254;72627;-52
2023/10/10 02:04:22;;;;;;;5.00;0.80;;;;;;;3.17;100.00;100282.25;105700;1259;65662;-51
2023/10/10 02:06:56;;;;;;;2.60;0.70;;;;;;;3.15;100.00;100283.34;104587;1257;73088;-49
2023/10/10 02:11:54;;;;;;;2.90;0.80;;;;;;;3.09;100.00;100284.46;104507;1255;60549;-48
2023/10/10 02:14:25;;;;;;;2.60;1.20;;;;;;;3.04;100.00;100287.18;105172;1254;72649;-50
2023/10/10 02:16:55;;;;;;;4.80;1.60;;;;;;;2.99;100.00;100280.29;104930;1256;65090;-51
2023/10/10 02:19:32;;;;;;;8.10;2.60;;;;;;;2.95;100.00;100272.73;107031;1260;71415;-48
2023/10/10 02:22:12;;;;;;;12.70;4.50;;;;;;;2.91;100.00;100271.33;107220;1256;60567;-50
2023/10/10 02:24:40;;;;;;;11.70;4.30;;;;;;;2.90;100.00;100274.54;104818;1254;60498;-51
2023/10/10 02:27:12;;;;;;;8.30;2.50;;;;;;;2.89;100.00;100276.30;104719;1258;74007;-49
2023/10/10 02:29:48;;;;;;;6.10;2.40;;;;;;;2.89;100.00;100278.08;104753;1253;67945;-50
2023/10/10 02:32:21;;;;;;;4.50;1.20;;;;;;;2.90;100.00;100277.37;106179;1259;71291;-47
2023/10/10 02:35:01;;;;;;;2.90;1.20;;;;;;;2.91;100.00;100276.47;105704;1254;60608;-52
2023/10/10 02:39:41;;;;;;;1.90;1.00;;;;;;;2.94;100.00;100279.63;101764;1292;600144;-52
2023/10/10 02:42:19;;;;;;;2.60;0.90;;;;;;;2.91;100.00;100273.98;104787;1270;59364;-51
2023/10/10 02:44:46;;;;;;;2.60;0.90;;;;;;;2.90;100.00;100275.77;103792;1270;60010;-50
2023/10/10 02:47:22;;;;;;;1.60;0.80;;;;;;;2.90;100.00;100275.77;104569;1272;71067;-50
2023/10/10 02:49:51;;;;;;;2.10;0.70;;;;;;;2.87;100.00;100270.33;106084;1273;67079;-51
2023/10/10 02:52:24;;;;;;;1.30;0.80;;;;;;;2.84;100.00;100273.52;103592;1276;184179;-50
2023/10/10 02:54:55;;;;;;;1.20;0.80;;;;;;;2.80;100.00;100274.63;104223;1264;59337;-52
2023/10/10 03:00:15;;;;;;;2.20;0.80;;;;;;;2.75;100.00;100274.14;104363;1264;70989;-52
2023/10/10 03:02:49;;;;;;;1.70;0.80;;;;;;;2.71;100.00;100280.39;103941;1263;65735;-52
2023/10/10 03:05:37;;;;;;;2.70;0.80;;;;;;;2.66;100.00;100275.27;104016;1264;72758;-51
2023/10/10 03:08:14;;;;;;;1.40;0.60;;;;;;;2.63;100.00;100270.34;105373;1260;63120;-51
2023/10/10 03:10:46;;;;;;;3.00;0.80;;;;;;;2.62;100.00;100267.34;108040;1260;60027;-49
2023/10/10 03:13:27;;;;;;;2.00;0.70;;;;;;;2.63;100.00;100270.70;107690;1262;72145;-49
2023/10/10 03:16:11;;;;;;;2.20;0.90;;;;;;;2.66;100.00;100272.26;105413;1260;67760;-47
2023/10/10 03:18:53;;;;;;;2.50;0.70;;;;;;;2.68;100.00;100266.04;104690;1260;71471;-47
2023/10/10 03:24:51;;;;;;;1.90;0.70;;;;;;;2.67;100.00;100272.79;104376;1265;59660;-49
2023/10/10 03:27:49;;;;;;;1.70;0.80;;;;;;;2.64;100.00;100281.29;104600;1257;71837;-50
2023/10/10 03:30:17;;;;;;;2.60;0.70;;;;;;;2.62;100.00;100283.29;104545;1262;66869;-51
2023/10/10 03:32:59;;;;;;;1.20;0.70;;;;;;;2.59;100.00;100289.33;105022;1264;73064;-52
2023/10/10 03:35:33;;;;;;;4.20;0.80;;;;;;;2.55;100.00;100288.11;108798;1257;58072;-50
2023/10/10 03:38:26;;;;;;;2.00;0.80;;;;;;;2.51;100.00;100285.31;108647;1257;60185;-51
2023/10/10 05:23:47;;;;;;;1.10;0.80;;;;;;;2.67;100.00;100372.38;104806;1259;71479;-47
2023/10/10 05:26:18;;;;;;;1.50;1.10;;;;;;;2.81;100.00;100371.75;109038;1257;59854;-50
2023/10/10 05:28:47;;;;;;;3.20;0.90;;;;;;;2.93;100.00;100365.45;107322;1254;59215;-48
2023/10/10 05:31:18;;;;;;;2.00;0.80;;;;;;;3.07;100.00;100365.70;104920;1257;71220;-48
2023/10/10 05:33:47;;;;;;;4.80;0.80;;;;;;;3.22;100.00;100370.52;105973;1254;66427;-49
2023/10/10 05:36:18;;;;;;;2.30;0.90;;;;;;;3.39;100.00;100373.39;105093;1254;73506;-49
2023/10/10 05:38:46;;;;;;;2.00;0.90;;;;;;;3.56;100.00;100376.25;104867;1256;59640;-48
2023/10/10 05:41:13;;;;;;;3.60;1.30;;;;;;;3.72;100.00;100381.94;104791;1254;60088;-47
2023/10/10 05:43:41;;;;;;;2.70;0.80;;;;;;;3.85;100.00;100387.13;105092;1254;73139;-49
2023/10/10 05:46:08;;;;;;;3.80;1.20;;;;;;;3.97;100.00;100386.45;104992;1254;67953;-48
2023/10/10 05:48:37;;;;;;;2.20;1.00;;;;;;;4.07;100.00;100382.78;104731;1254;75043;-47
2023/10/10 05:51:04;;;;;;;3.10;1.20;;;;;;;4.14;100.00;100382.87;104787;1254;59631;-49
2023/10/10 05:53:33;;;;;;;4.90;1.40;;;;;;;4.19;100.00;100386.54;104835;1257;59660;-47
2023/10/10 05:56:12;;;;;;;1.80;1.20;;;;;;;4.22;100.00;100388.29;106934;1254;72989;-49
2023/10/10 05:58:42;;;;;;;2.50;1.10;;;;;;;4.25;100.00;100392.34;104851;1254;68130;-48
2023/10/10 06:01:14;;;;;;;4.00;0.90;;;;;;;4.29;100.00;100399.03;104746;1254;72737;-49
2023/10/10 06:03:44;;;;;;;3.30;1.10;;;;;;;4.33;100.00;100395.44;107463;1254;59558;-49
2023/10/10 06:06:13;;;;;;;1.90;0.90;;;;;;;4.37;100.00;100399.45;104964;1257;59691;-48
2023/10/10 06:08:44;;;;;;;2.10;0.90;;;;;;;4.43;100.00;100396.53;105513;1256;71736;-48
2023/10/10 06:11:14;;;;;;;2.60;1.00;;;;;;;4.50;100.00;100399.11;105029;1254;67825;-48
2023/10/10 06:13:43;;;;;;;2.00;0.80;;;;;;;4.56;100.00;100403.65;105518;1253;71446;-48
2023/10/10 06:16:13;;;;;;;2.10;0.90;;;;;;;4.61;100.00;100410.34;105068;1256;60743;-48
2023/10/10 06:18:49;;;;;;;3.00;1.00;;;;;;;4.65;100.00;100421.31;107740;1254;58790;-49
2023/10/10 06:21:16;;;;;;;2.10;0.90;;;;;;;4.70;100.00;100417.85;104872;1254;71556;-47
2023/10/10 06:23:44;;;;;;;2.50;0.80;;;;;;;4.74;100.00;100411.58;106220;1254;65992;-48
2023/10/10 06:26:12;;;;;;;3.80;1.10;;;;;;;4.80;100.00;100413.27;106612;1257;71434;-49
2023/10/10 06:28:47;;;;;;;2.20;0.90;;;;;;;4.89;100.00;100420.61;104927;1254;59743;-47
2023/10/10 06:31:33;;;;;;;1.80;0.90;;;;;;;4.98;100.00;100419.05;106280;1254;59604;-47
2023/10/10 06:34:19;;;;;;;2.60;1.20;;;;;;;5.05;100.00;100424.10;104782;1254;73522;-48
2023/10/10 06:36:49;;;;;;;3.10;0.90;;;;;;;5.09;100.00;100427.42;104621;1253;68518;-49
2023/10/10 06:41:50;;;;;;;2.60;1.10;;;;;;;5.11;100.00;100431.65;109085;1253;59230;-49
2023/10/10 06:44:31;;;;;;;1.90;0.80;;;;;;;5.09;100.00;100438.11;106188;1254;60495;-47
2023/10/10 06:47:10;;;;;;;2.20;1.10;;;;;;;5.08;100.00;100436.87;104834;1254;72693;-50
2023/10/10 06:49:54;;;;;;;1.90;1.00;;;;;;;5.07;100.00;100442.58;109045;1253;66582;-48
2023/10/10 06:52:23;;;;;;;2.10;0.90;;;;;;;5.06;100.00;100451.13;109143;1253;71200;-49
2023/10/10 06:54:54;;;;;;;3.60;0.90;;;;;;;5.05;100.00;100447.04;109020;1259;60906;-51
2023/10/10 06:57:43;;;;;;;2.90;0.80;;;;;;;5.05;100.00;100444.55;109184;1253;60669;-47
2023/10/10 07:00:27;;;;;;;1.20;0.80;;;;;;;5.07;100.00;100441.86;108943;1254;71075;-50
2023/10/10 07:02:56;;;;;;;2.70;1.00;;;;;;;5.12;100.00;100441.24;109147;1253;66817;-49
2023/10/10 07:05:27;;;;;;;1.80;0.80;;;;;;;5.18;100.00;100441.88;109103;1253;73108;-48
2023/10/10 07:07:58;;;;;;;3.50;1.50;;;;;;;5.21;100.00;100444.30;109249;1253;59875;-49
2023/10/10 07:10:33;;;;;;;3.10;0.80;;;;;;;5.24;100.00;100444.09;109107;1253;59112;-49
2023/10/10 07:13:10;;;;;;;2.10;0.80;;;;;;;5.24;100.00;100446.40;109091;1253;74314;-48
2023/10/10 07:15:39;;;;;;;2.90;0.90;;;;;;;5.26;100.00;100448.15;109175;1254;66629;-49
2023/10/10 07:18:09;;;;;;;4.30;1.00;;;;;;;5.31;100.00;100444.16;108994;1253;73142;-48
2023/10/10 07:23:24;;;;;;;5.80;1.10;;;;;;;5.47;100.00;100435.00;109128;1253;60088;-48
2023/10/10 07:26:00;;;;;;;1.50;0.70;;;;;;;5.55;100.00;100427.20;109236;1253;72616;-48
2023/10/10 07:28:29;;;;;;;1.70;0.80;;;;;;;5.61;100.00;100425.86;109059;1253;67873;-50
2023/10/10 07:30:56;;;;;;;2.90;0.70;;;;;;;5.65;100.00;100420.96;109012;1254;71469;-48
2023/10/10 07:33:40;;;;;;;4.40;0.80;;;;;;;5.70;100.00;100419.63;109040;1253;59715;-50
2023/10/10 07:36:12;;;;;;;1.80;0.60;;;;;;;5.77;100.00;100418.64;109023;1253;60862;-50
2023/10/10 07:38:40;;;;;;;1.60;0.70;;;;;;;5.84;100.00;100416.89;109166;1254;74340;-50
2023/10/10 07:41:09;;;;;;;1.00;0.90;;;;;;;5.93;100.00;100419.77;108088;1256;68096;-50
2023/10/10 07:43:37;;;;;;;1.70;0.60;;;;;;;6.05;100.00;100425.96;106023;1254;71367;-48
2023/10/10 07:46:17;;;;;;;1.30;0.80;;;;;;;6.16;100.00;100430.92;109118;1253;60342;-49
2023/10/10 07:48:46;;;;;;;1.70;1.10;;;;;;;6.24;100.00;100430.73;107688;1258;60089;-49
2023/10/10 07:51:27;;;;;;;2.80;0.90;;;;;;;6.31;100.00;100432.23;105019;1256;71658;-49
2023/10/10 07:54:10;;;;;;;1.90;0.80;;;;;;;6.36;100.00;100435.50;105461;1257;67572;-48
2023/10/10 07:56:45;;;;;;;2.20;0.80;;;;;;;6.43;100.00;100435.36;104959;1254;73048;-50
2023/10/10 07:59:13;;;;;;;2.50;0.80;;;;;;;6.53;100.00;100434.26;105337;1256;60665;-48
2023/10/10 08:01:42;;;;;;;1.40;0.70;;;;;;;6.66;100.00;100438.26;105790;1254;60633;-48
2023/10/10 08:04:14;;;;;;;1.90;0.70;;;;;;;6.75;100.00;100440.20;105008;1257;74308;-49
2023/10/10 08:06:44;;;;;;;2.50;0.70;;;;;;;6.85;100.00;100441.42;104988;1254;69930;-49
2023/10/10 08:09:23;;;;;;;1.10;0.60;;;;;;;6.96;100.00;100443.50;104858;1254;73540;-49
2023/10/10 08:11:55;;;;;;;1.00;0.60;;;;;;;7.04;100.00;100442.96;104873;1257;60565;-48
2023/10/10 08:14:31;;;;;;;1.50;0.60;;;;;;;7.09;100.00;100442.83;105255;1256;60478;-51
2023/10/10 08:17:04;;;;;;;1.20;0.70;;;;;;;7.11;100.00;100440.81;104689;1254;72710;-48
2023/10/10 08:19:33;;;;;;;1.30;0.60;;;;;;;7.12;100.00;100441.87;104995;1257;67048;-49
2023/10/10 08:22:12;;;;;;;1.20;0.60;;;;;;;7.17;100.00;100442.09;105173;1253;71067;-47
2023/10/10 08:24:43;;;;;;;1.40;0.60;;;;;;;7.25;100.00;100442.62;104852;1256;60553;-49
2023/10/10 08:27:11;;;;;;;1.10;0.50;;;;;;;7.35;100.00;100438.11;104881;1254;60494;-47
2023/10/10 08:29:40;;;;;;;1.00;0.60;;;;;;;7.46;100.00;100437.66;104989;1254;73862;-48
2023/10/10 08:32:08;;;;;;;2.50;0.50;;;;;;;7.54;100.00;100432.64;104997;1254;66591;-48
2023/10/10 08:34:42;;;;;;;1.50;0.50;;;;;;;7.62;100.00;100435.98;105319;1252;71414;-50
2023/10/10 08:37:10;;;;;;;1.20;0.70;;;;;;;7.73;100.00;100435.90;104913;1257;60371;-50
2023/10/10 08:39:39;;;;;;;3.80;0.60;;;;;;;7.83;100.00;100436.89;104883;1253;60701;-48
2023/10/10 08:42:10;;;;;;;1.30;0.60;;;;;;;7.88;100.00;100434.77;105070;1254;72989;-48
2023/10/10 08:44:39;;;;;;;1.40;0.60;;;;;;;7.94;100.00;100434.43;104891;1253;66435;-52
2023/10/10 08:47:08;;;;;;;0.90;0.50;;;;;;;8.01;100.00;100438.70;105652;1252;73426;-49
2023/10/10 08:49:35;;;;;;;2.70;0.60;;;;;;;8.10;100.00;100434.90;104890;1254;60528;-49
2023/10/10 08:52:03;;;;;;;1.30;0.50;;;;;;;8.19;100.00;100439.84;104850;1253;60373;-48
2023/10/10 08:54:32;;;;;;;1.40;0.60;;;;;;;8.27;100.00;100443.35;104762;1254;73988;-50
2023/10/10 08:57:00;;;;;;;2.00;0.40;;;;;;;8.33;100.00;100450.21;105807;1255;66780;-52
2023/10/10 08:59:29;;;;;;;1.20;0.50;;;;;;;8.36;100.00;100450.84;104892;1253;74625;-49
2023/10/10 09:02:06;;;;;;;1.10;0.50;;;;;;;8.39;100.00;100448.07;104604;1254;60497;-50
2023/10/10 09:04:33;;;;;;;1.30;0.60;;;;;;;8.43;100.00;100452.06;104906;1260;60390;-50
2023/10/10 09:07:08;;;;;;;1.10;0.40;;;;;;;8.48;100.00;100458.73;105036;1259;72638;-48
2023/10/10 09:09:54;;;;;;;1.20;0.40;;;;;;;8.50;100.00;100458.83;104875;1258;66468;-49
2023/10/10 09:12:23;;;;;;;0.80;0.40;;;;;;;8.57;100.00;100462.95;105016;1254;71482;-49
2023/10/10 09:14:50;;;;;;;1.30;0.40;;;;;;;8.59;100.00;100460.04;109033;1254;58251;-52
2023/10/10 09:17:28;;;;;;;1.60;0.30;;;;;;;8.58;100.00;100463.10;109013;1253;58718;-51
2023/10/10 09:20:00;;;;;;;4.80;0.40;;;;;;;8.55;100.00;100457.63;106283;1254;72573;-52
2023/10/10 09:22:29;;;;;;;0.70;0.50;;;;;;;8.54;100.00;100459.44;104876;1254;66766;-51
2023/10/10 09:24:57;;;;;;;1.10;0.30;;;;;;;8.58;100.00;100452.34;109063;1253;73276;-51
2023/10/10 09:27:28;;;;;;;2.20;0.40;;;;;;;8.65;100.00;100448.74;106842;1257;60558;-49
2023/10/10 09:29:56;;;;;;;1.20;0.30;;;;;;;8.72;100.00;100445.49;105042;1256;60433;-47
2023/10/10 09:32:35;;;;;;;0.80;0.70;;;;;;;8.76;100.00;100447.01;104859;1254;72664;-49
2023/10/10 09:35:08;;;;;;;0.40;0.30;;;;;;;8.81;100.00;100445.95;106720;1254;66771;-50
2023/10/10 09:37:39;;;;;;;1.10;0.30;;;;;;;8.89;100.00;100445.86;108052;1253;71552;-51
2023/10/10 09:40:15;;;;;;;1.20;0.30;;;;;;;9.00;100.00;100440.88;109039;1252;59327;-49
2023/10/10 09:43:03;;;;;;;0.50;0.30;;;;;;;9.08;100.00;100445.98;107397;1256;60505;-50
2023/10/10 09:45:55;;;;;;;0.30;0.20;;;;;;;9.09;100.00;100450.08;107370;1256;74062;-52
2023/10/10 09:48:33;;;;;;;0.60;0.30;;;;;;;9.05;100.00;100457.54;108895;1254;66125;-50
2023/10/10 09:53:47;;;;;;;3.10;0.30;;;;;;;8.98;100.00;100459.72;108921;1254;59588;-51
2023/10/10 09:56:15;;;;;;;0.60;0.30;;;;;;;8.96;100.00;100454.42;109201;1253;58851;-49
2023/10/10 09:58:43;;;;;;;0.60;0.20;;;;;;;9.00;100.00;100456.10;109113;1253;73401;-49
2023/10/10 10:01:21;;;;;;;0.40;0.20;;;;;;;9.05;100.00;100455.21;108957;1254;67996;-51
2023/10/10 10:04:00;;;;;;;1.20;0.20;;;;;;;9.09;100.00;100455.48;108972;1254;72474;-49
2023/10/10 10:06:37;;;;;;;1.40;0.20;;;;;;;9.07;100.00;100456.60;109182;1254;59515;-49
2023/10/10 10:09:36;;;;;;;0.30;0.20;;;;;;;9.00;100.00;100455.20;109075;1252;58811;-49
2023/10/10 10:12:30;;;;;;;0.90;0.30;;;;;;;8.95;100.00;100453.38;109085;1253;74297;-49
2023/10/10 10:15:18;;;;;;;0.40;0.20;;;;;;;8.92;100.00;100447.21;109018;1253;66788;-50
2023/10/10 10:17:48;;;;;;;0.40;0.20;;;;;;;8.93;100.00;100452.54;109004;1253;72760;-48
2023/10/10 10:23:44;;;;;;;0.40;0.20;;;;;;;8.94;100.00;100457.15;109064;1253;60111;-47
2023/10/10 10:26:22;;;;;;;1.80;0.20;;;;;;;8.97;100.00;100460.30;109071;1254;74747;-49
2023/10/10 10:28:56;;;;;;;0.40;0.20;;;;;;;8.98;100.00;100464.57;109068;1254;66505;-47
2023/10/10 10:31:37;;;;;;;0.50;0.20;;;;;;;8.97;100.00;100472.29;109197;1254;72724;-47
2023/10/10 10:34:10;;;;;;;0.30;0.10;;;;;;;8.96;100.00;100469.81;109039;1253;59623;-50
2023/10/10 10:36:41;;;;;;;0.90;0.30;;;;;;;8.95;100.00;100465.36;109120;1253;58995;-50
2023/10/10 10:39:19;;;;;;;0.50;0.20;;;;;;;8.96;100.00;100467.30;109057;1253;72622;-47
2023/10/10 10:41:56;;;;;;;0.40;0.20;;;;;;;8.99;100.00;100468.48;106543;1254;66619;-48
2023/10/10 10:45:23;;;;;;;0.60;0.20;;;;;;;9.03;100.00;100467.45;104939;1257;71489;-50
2023/10/10 10:47:34;;;;;;;0.40;0.20;;;;;;;9.06;100.00;100465.20;104884;1259;61439;-51
2023/10/10 10:50:16;;;;;;;0.60;0.20;;;;;;;9.06;100.00;100463.77;106405;1254;60626;-47
2023/10/10 10:52:48;;;;;;;0.60;0.20;;;;;;;9.06;100.00;100460.73;105541;1253;73894;-50
2023/10/10 10:55:21;;;;;;;0.40;0.20;;;;;;;9.10;100.00;100462.39;105277;1254;67565;-47
2023/10/10 10:57:49;;;;;;;1.50;0.30;;;;;;;9.17;100.00;100462.02;104746;1254;73683;-48
2023/10/10 11:00:29;;;;;;;1.30;0.30;;;;;;;9.26;100.00;100462.26;104717;1254;60767;-49
2023/10/10 11:02:59;;;;;;;0.50;0.30;;;;;;;9.38;100.00;100461.86;109061;1252;60505;-51
2023/10/10 11:05:28;;;;;;;0.30;0.20;;;;;;;9.48;100.00;100462.10;105016;1253;73896;-48
2023/10/10 11:08:10;;;;;;;0.30;0.20;;;;;;;9.52;100.00;100469.49;104708;1256;66483;-49
2023/10/10 11:10:38;;;;;;;0.60;0.10;;;;;;;9.54;100.00;100469.59;106011;1254;71450;-49
2023/10/10 11:13:07;;;;;;;0.50;0.20;;;;;;;9.54;100.00;100467.79;104809;1258;60364;-49
2023/10/10 11:15:38;;;;;;;0.60;0.30;;;;;;;9.54;100.00;100471.02;104889;1254;60626;-49
2023/10/10 11:18:08;;;;;;;0.40;0.20;;;;;;;9.50;100.00;100473.13;109050;1257;74803;-49
2023/10/10 11:20:56;;;;;;;2.50;0.20;;;;;;;9.46;100.00;100470.39;106857;1256;65518;-48
2023/10/10 11:23:41;;;;;;;0.20;0.10;;;;;;;9.45;100.00;100472.91;106056;1254;72717;-49
2023/10/10 11:26:13;;;;;;;;;;;;;;;9.51;100.00;100478.13;104677;1254;60567;-49
2023/10/10 11:28:47;;;;;;;1.30;0.20;;;;;;;9.59;100.00;100476.59;105865;1253;60540;-49
2023/10/10 11:31:23;;;;;;;0.80;0.20;;;;;;;9.70;100.00;100475.35;109011;1254;72621;-50
2023/10/10 11:34:10;;;;;;;0.30;0.20;;;;;;;9.80;100.00;100471.05;106235;1254;67820;-49
2023/10/10 11:36:39;;;;;;;0.40;0.30;;;;;;;9.88;100.00;100483.85;108649;1252;73165;-49
2023/10/10 11:39:31;;;;;;;0.40;0.20;;;;;;;9.93;100.00;100476.00;105174;1259;60455;-49
2023/10/10 11:42:04;;;;;;;1.70;0.30;;;;;;;10.01;100.00;100475.72;109093;1252;60302;-50
2023/10/10 11:44:33;;;;;;;3.10;0.30;;;;;;;10.10;100.00;100472.33;107343;1254;72638;-49
2023/10/10 11:47:07;;;;;;;0.30;0.20;;;;;;;10.18;100.00;100479.27;105135;1259;66931;-48
2023/10/10 11:49:35;;;;;;;0.40;0.20;;;;;;;10.26;100.00;100482.95;106734;1254;71442;-51
2023/10/10 11:52:03;;;;;;;0.40;0.20;;;;;;;10.28;100.00;100482.34;105021;1257;60386;-48
2023/10/10 11:54:31;;;;;;;0.40;0.10;;;;;;;10.24;100.00;100481.73;105252;1253;60766;-48
2023/10/10 11:56:59;;;;;;;0.40;0.20;;;;;;;10.21;100.00;100480.59;104939;1254;72670;-49
2023/10/10 11:59:27;;;;;;;1.00;0.20;;;;;;;10.20;100.00;100489.27;105012;1252;66442;-48
2023/10/10 12:02:07;;;;;;;0.50;0.20;;;;;;;10.15;100.00;100485.46;106229;1254;71452;-48
2023/10/10 12:04:36;;;;;;;0.30;0.20;;;;;;;10.05;100.00;100485.09;104901;1256;60895;-50
2023/10/10 12:07:05;;;;;;;1.00;0.20;;;;;;;9.99;100.00;100486.54;105065;1254;60569;-50
2023/10/10 12:09:33;;;;;;;0.50;0.30;;;;;;;9.93;100.00;100493.23;106025;1254;72648;-49
2023/10/10 12:12:03;;;;;;;0.30;0.20;;;;;;;9.88;100.00;100501.77;104820;1259;66470;-51
2023/10/10 12:14:31;;;;;;;0.70;0.20;;;;;;;9.85;100.00;100497.06;105747;1254;73758;-50
2023/10/10 12:16:59;;;;;;;0.50;0.20;;;;;;;9.83;100.00;100503.74;105319;1254;60616;-50
2023/10/10 12:19:28;;;;;;;0.20;0.10;;;;;;;9.82;100.00;100504.50;104923;1254;60662;-51
2023/10/10 12:22:01;;;;;;;0.80;0.20;;;;;;;9.81;100.00;100503.44;104561;1254;74754;-49
2023/10/10 12:24:28;;;;;;;0.40;0.20;;;;;;;9.80;100.00;100507.08;104697;1257;67476;-51
2023/10/10 12:26:56;;;;;;;0.20;0.10;;;;;;;9.78;100.00;100505.73;104640;1257;73720;-52
2023/10/10 12:29:23;;;;;;;0.40;0.20;;;;;;;9.75;100.00;100506.17;104600;1254;60569;-53
2023/10/10 12:31:58;;;;;;;0.30;0.20;;;;;;;9.72;100.00;100507.88;109016;1253;59081;-51
2023/10/10 12:34:25;;;;;;;0.50;0.20;;;;;;;9.71;100.00;100505.74;109028;1252;76449;-50
2023/10/10 12:36:59;;;;;;;0.30;0.20;;;;;;;9.72;100.00;100507.16;109062;1257;68465;-51
2023/10/10 12:39:30;;;;;;;0.40;0.20;;;;;;;9.71;100.00;100511.30;109008;1254;71433;-52
2023/10/10 12:41:57;;;;;;;0.20;0.10;;;;;;;9.70;100.00;100516.56;109079;1254;62719;-49
2023/10/10 12:44:24;;;;;;;0.20;0.20;;;;;;;9.66;100.00;100520.61;108905;1253;60461;-50
2023/10/10 12:46:58;;;;;;;0.20;0.10;;;;;;;9.63;100.00;100521.96;109050;1252;74326;-51
2023/10/10 12:49:29;;;;;;;0.40;0.10;;;;;;;9.62;100.00;100522.38;108967;1253;67953;-49
2023/10/10 12:51:57;;;;;;;0.40;0.20;;;;;;;9.62;100.00;100518.05;109017;1254;73168;-51
2023/10/10 12:54:34;;;;;;;0.30;0.20;;;;;;;9.65;100.00;100520.30;108981;1256;60137;-49
2023/10/10 12:57:06;;;;;;;0.50;0.20;;;;;;;9.69;100.00;100517.86;109045;1252;60516;-51
2023/10/10 12:59:33;;;;;;;0.40;0.20;;;;;;;9.71;100.00;100513.27;108955;1253;75959;-50
2023/10/10 13:02:03;;;;;;;0.40;0.30;;;;;;;9.73;100.00;100522.39;108829;1254;65738;-50
2023/10/10 13:04:32;;;;;;;0.50;0.20;;;;;;;9.73;100.00;100525.58;108905;1254;72828;-49
2023/10/10 13:07:02;;;;;;;3.10;0.10;;;;;;;9.74;100.00;100526.27;109133;1252;58837;-50
2023/10/10 13:09:32;;;;;;;0.40;0.20;;;;;;;9.75;100.00;100527.69;109075;1254;60980;-49
2023/10/10 13:12:02;;;;;;;0.50;0.20;;;;;;;9.75;100.00;100531.98;106922;1256;74663;-48
2023/10/10 13:14:32;;;;;;;0.50;0.20;;;;;;;9.75;100.00;100531.08;109036;1252;66580;-49
2023/10/10 13:17:28;;;;;;;0.20;0.20;;;;;;;9.76;100.00;100533.55;108982;1254;71460;-50
2023/10/10 13:19:58;;;;;;;0.30;0.10;;;;;;;9.77;100.00;100532.30;109005;1254;58768;-51
2023/10/10 13:22:29;;;;;;;0.30;0.10;;;;;;;9.79;100.00;100532.59;109123;1253;58910;-49
2023/10/10 13:24:57;;;;;;;0.40;0.20;;;;;;;9.82;100.00;100532.64;106960;1254;74175;-50
2023/10/10 13:27:25;;;;;;;0.30;0.20;;;;;;;9.87;100.00;100531.93;105185;1256;67071;-50
2023/10/10 13:29:53;;;;;;;0.20;0.10;;;;;;;9.91;100.00;100532.72;108977;1254;71397;-50
2023/10/10 13:32:20;;;;;;;0.90;0.20;;;;;;;9.91;100.00;100532.73;108939;1252;59321;-50
2023/10/10 13:34:48;;;;;;;1.60;0.20;;;;;;;9.90;100.00;100537.58;107705;1253;60482;-49
2023/10/10 13:37:16;;;;;;;0.30;0.20;;;;;;;9.89;100.00;100538.70;105058;1254;73898;-47
2023/10/10 13:39:43;;;;;;;1.30;0.10;;;;;;;9.86;100.00;100540.60;109083;1254;68036;-51
2023/10/10 13:42:14;;;;;;;0.40;0.20;;;;;;;9.83;100.00;100541.04;107634;1254;71416;-47
2023/10/10 13:44:42;;;;;;;0.30;0.20;;;;;;;9.79;100.00;100545.28;109101;1254;62297;-50
2023/10/10 13:47:11;;;;;;;0.50;0.10;;;;;;;9.74;100.00;100545.64;106733;1254;62340;-48
2023/10/10 13:49:44;;;;;;;1.30;0.20;;;;;;;9.68;100.00;100549.23;105095;1254;75633;-48
2023/10/10 13:52:13;;;;;;;0.20;0.20;;;;;;;9.62;100.00;100547.63;104962;1254;70784;-50
2023/10/10 13:54:40;;;;;;;0.30;0.20;;;;;;;9.59;100.00;100543.46;105452;1254;71999;-50
2023/10/10 13:57:09;;;;;;;0.20;0.20;;;;;;;9.56;100.00;100550.71;105178;1254;62473;-49
2023/10/10 13:59:37;;;;;;;0.40;0.20;;;;;;;9.53;100.00;100554.04;107264;1254;60512;-48
2023/10/10 14:02:10;;;;;;;0.30;0.20;;;;;;;9.50;100.00;100556.81;105450;1259;72676;-49
2023/10/10 14:04:48;;;;;;;1.10;0.10;;;;;;;9.45;100.00;100553.36;105167;1259;68861;-47